Detalii statie VESTAGRAR MARGHITA [00001D0E]

Toti senzorii

Date Temperatura solului [C]Precipitatii [mm]Voltaj baterie [mV]Leaf Wetness [Min]HC Air temperature [C]HC Relative humidity [%]Punctul de roua [C]
medieminmaxsumaultimatimpmedieminmaxmediemediemin
2020-01-25 15:00:00 0 7324 1.4 0.71 2.17 0 0 0
2020-01-25 16:00:00 0 7274 -0.54 -1.38 0.55 0 0 0
2020-01-25 17:00:00 0 7118 -2.01 -2.25 -1.44 0 0 0
2020-01-25 18:00:00 0 7050 -2.13 -2.27 -2.02 0 0 0
2020-01-25 19:00:00 0 7020 -2.26 -2.35 -2.21 0 0 0
2020-01-25 20:00:00 0 7000 -2.52 -2.64 -2.34 0 0 0
2020-01-25 21:00:00 0 6992 -2.68 -2.72 -2.62 0 0 0
2020-01-25 22:00:00 0 6982 -2.65 -2.72 -2.58 0 0 0
2020-01-25 23:00:00 0 6972 -2.78 -2.86 -2.72 0 0 0
2020-01-26 00:00:00 0 6972 -2.71 -2.86 -2.62 0 0 0
2020-01-26 01:00:00 0 6962 -2.42 -2.58 -2.28 0 0 0
2020-01-26 02:00:00 0 6952 -2.24 -2.29 -2.22 0 0 0
2020-01-26 03:00:00 0 6952 -2.19 -2.31 -2.03 0 0 0
2020-01-26 04:00:00 0 6942 -1.98 -2.11 -1.87 0 0 0
2020-01-26 05:00:00 0 6942 -1.77 -1.87 -1.7 0 0 0
2020-01-26 06:00:00 0 6932 -1.81 -2 -1.75 0 0 0
2020-01-26 07:00:00 0 6932 -1.95 -2.09 -1.89 0 0 0
2020-01-26 08:00:00 0 6922 -2.14 -2.31 -1.97 0 0 0
2020-01-26 09:00:00 0 6922 -2.23 -2.39 -2.03 0 0 0
2020-01-26 10:00:00 0 6962 -1.63 -2.02 -1.32 0 0 0
2020-01-26 11:00:00 0 7040 -0.84 -1.26 -0.45 0 0 0
2020-01-26 12:00:00 0 7118 -0.21 -0.57 0.14 0 0 0
2020-01-26 13:00:00 0 7206 0.32 0.18 0.47 0 0 0
2020-01-26 14:00:00 0 7264 1.13 0.48 1.35 0 0 0
2020-01-26 15:00:00 0 7158 1.64 1.42 1.74 0 0 0
2020-01-26 16:00:00 0 7108 1.44 1.24 1.62 0 0 0
2020-01-26 17:00:00 0 7040 0.99 0.75 1.21 0 0 0
2020-01-26 18:00:00 0 6992 0.72 0.68 0.78 0 0 0
2020-01-26 19:00:00 0 6962 0.78 0.7 0.87 0 0 0
2020-01-26 20:00:00 0 6952 0.61 0.52 0.67 0 0 0
2020-01-26 21:00:00 0 6932 0.57 0.46 0.74 0 0 0
2020-01-26 22:00:00 0 6932 0.68 0.24 0.88 0 0 0
2020-01-26 23:00:00 0 6922 -0.06 -0.32 0.16 0 0 0
2020-01-27 00:00:00 0 6922 -0.03 -0.4 0.64 0 0 0
2020-01-27 01:00:00 0 6914 -0.51 -0.8 -0.24 0 0 0
2020-01-27 02:00:00 0 6922 -0.42 -0.64 -0.27 0 0 0
2020-01-27 03:00:00 0 6914 0.05 -0.27 0.27 0 0 0
2020-01-27 04:00:00 0 6914 -0.06 -0.61 0.32 0 0 0
2020-01-27 05:00:00 0 6914 -0.02 -0.25 0.2 0 0 0
2020-01-27 06:00:00 0 6914 -0.26 -0.55 0.07 0 0 0
2020-01-27 07:00:00 0 6914 0.27 -0.01 0.49 0 0 0
2020-01-27 08:00:00 0 6914 0.32 0.23 0.49 0 0 0
2020-01-27 09:00:00 0 6932 0.52 0.38 0.77 0 0 0
2020-01-27 10:00:00 0 6962 1.13 0.54 1.59 0 0 0
2020-01-27 11:00:00 0 7040 2.54 1.85 3.29 0 0 0
2020-01-27 12:00:00 0 7206 3.5 3.23 3.68 0 0 0
2020-01-27 13:00:00 0 7254 4.73 3.74 5.3 0 0 0
2020-01-27 14:00:00 0 7216 4.24 4.13 4.35 0 0 0